Bayfield, CO (81122)

10:17 PM MDT on July 27, 2016 (GMT -0600)
Pine River Ranches | | Change Station

Elev 7178 ft 37.30 °N, 107.61 °W | Updated 12 minutes ago

Clear
Clear
61.9 °F
Feels Like 61.9 °F
N
2.2
Wind Variable Wind from East

Today
High -- | Low -- °F
--% Chance of Precip.
Yesterday
High -- | Low -- °F
Precip. -- in
Pressure 29.93 in
Visibility 10.0 miles
Clouds Clear
Dew Point 35 °F
Humidity 36%
Rainfall 0.02 in
Snow Depth Not available.
6:11 AM 8:22 PM
Last Quarter, 36% visible
METAR KDRO 280353Z AUTO 05003KT 10SM CLR 22/M06 A3022 RMK AO2 SLP133 T02171061
Pressure 29.93 in
Visibility 10.0 miles
Clouds Clear
Dew Point 35 °F
Humidity 36%
Rainfall 0.02 in
Snow Depth Not available.
6:11 AM 8:22 PM
Last Quarter, 36% visible
METAR KDRO 280353Z AUTO 05003KT 10SM CLR 22/M06 A3022 RMK AO2 SLP133 T02171061

10-Day Weather Forecast

Almanac

Astronomy

Jul. 27, 2016 Rise Set
Actual Time
Civil Twilight
Nautical Twilight
Astronomical Twilight
Moon
Length of Visible Light
Length of Day
Tomorrow will be .
, % of the Moon is Illuminated

Today's Extremes

State Highs State Lows

Community

WunderPhotos

Upload Photos

1,928,045 photos uploaded!

WunderBlog® & News

Nearby

Air Quality

  Air Quality AQ Index Pollutant
Not available.

Snow Depth

Station Depth Elevation

Earthquake Activity

City Distance Mag. Time & Date
Minimum magnitude displayed is 2.5.

Coastal Water Temperatures

Place Temperature

Stations

Nearby Weather Stations

Station Location Temp. Windchill Dew Point Humidity Wind Precip. Elev Updated Type
                   

Watches & Warnings

There are currently no watches in effect.